createdAt,value
2024-05-09T00:03:47.413Z,14.45
2024-05-09T00:07:51.572Z,14.18
2024-05-09T00:11:56.159Z,14.60
2024-05-09T00:16:00.586Z,14.35
2024-05-09T00:20:05.183Z,14.00
2024-05-09T00:24:11.377Z,14.15
2024-05-09T00:28:14.244Z,14.77
2024-05-09T00:32:16.908Z,14.68
2024-05-09T00:36:19.508Z,14.80
2024-05-09T00:40:30.869Z,16.92
2024-05-09T00:44:40.696Z,16.60
2024-05-09T00:48:45.091Z,15.82
2024-05-09T00:52:48.737Z,15.27
2024-05-09T00:56:52.666Z,15.35
2024-05-09T01:00:58.699Z,15.10
2024-05-09T01:05:02.358Z,16.20
2024-05-09T01:09:04.784Z,16.75
2024-05-09T01:13:07.843Z,17.40
2024-05-09T01:17:10.480Z,16.98
2024-05-09T01:21:12.945Z,17.90
2024-05-09T01:25:15.886Z,18.17
2024-05-09T01:29:18.699Z,17.40
2024-05-09T01:37:23.591Z,16.50
2024-05-09T01:41:25.998Z,15.80
2024-05-09T01:45:28.407Z,15.40
2024-05-09T01:49:37.084Z,15.77
2024-05-09T01:53:39.789Z,13.07
2024-05-09T01:57:42.441Z,15.15
2024-05-09T02:01:56.351Z,14.68
2024-05-09T02:06:00.100Z,15.52
2024-05-09T02:10:03.768Z,15.98
2024-05-09T02:14:08.932Z,14.45
2024-05-09T02:18:12.012Z,14.23
2024-05-09T02:22:14.787Z,13.40
2024-05-09T02:26:17.140Z,14.48
2024-05-09T02:30:29.890Z,15.43
2024-05-09T02:34:40.291Z,15.05
2024-05-09T02:38:42.645Z,16.48
2024-05-09T02:42:45.139Z,15.45
2024-05-09T02:46:47.499Z,15.40
2024-05-09T02:50:49.955Z,14.65
2024-05-09T02:54:52.911Z,14.23
2024-05-09T02:58:56.786Z,14.73
2024-05-09T03:03:00.178Z,15.00
2024-05-09T03:07:02.639Z,13.75
2024-05-09T03:11:05.390Z,15.43
2024-05-09T03:15:08.243Z,14.88
2024-05-09T03:19:10.868Z,14.85
2024-05-09T03:23:13.543Z,15.85
2024-05-09T03:27:15.997Z,15.48
2024-05-09T03:31:19.771Z,14.43
2024-05-09T03:35:22.219Z,15.25
2024-05-09T03:39:24.670Z,15.93
2024-05-09T03:43:26.942Z,14.10
2024-05-09T03:47:29.409Z,15.48
2024-05-09T03:51:31.838Z,15.15
2024-05-09T03:55:34.547Z,16.05
2024-05-09T04:03:39.823Z,13.95
2024-05-09T04:07:45.695Z,14.32
2024-05-09T04:11:48.168Z,13.10
2024-05-09T04:15:50.684Z,14.82
2024-05-09T04:19:53.086Z,14.38
2024-05-09T04:23:55.500Z,13.18
2024-05-09T04:27:58.152Z,13.82
2024-05-09T04:32:00.665Z,14.13
2024-05-09T04:36:03.095Z,14.57
2024-05-09T04:40:08.961Z,12.18
2024-05-09T04:44:13.688Z,14.73
2024-05-09T04:48:17.182Z,13.75
2024-05-09T04:52:19.905Z,13.98
2024-05-09T04:56:22.363Z,14.10
2024-05-09T05:00:32.541Z,13.95
2024-05-09T05:04:39.201Z,13.30
2024-05-09T05:08:41.879Z,13.63
2024-05-09T05:13:02.996Z,14.48
2024-05-09T05:17:05.699Z,13.82
2024-05-09T05:21:08.008Z,15.27
2024-05-09T05:25:10.289Z,14.85
2024-05-09T05:29:13.106Z,14.30
2024-05-09T05:37:18.599Z,14.73
2024-05-09T05:41:20.919Z,15.73
2024-05-09T05:45:23.560Z,14.50
2024-05-09T05:49:27.321Z,16.83
2024-05-09T05:53:30.024Z,16.73
2024-05-09T05:57:32.584Z,17.60
2024-05-09T06:01:34.846Z,16.63
2024-05-09T06:05:40.054Z,17.13
2024-05-09T06:09:44.791Z,17.60
2024-05-09T06:13:48.461Z,16.55
2024-05-09T06:17:51.067Z,18.35
2024-05-09T06:21:53.513Z,19.77
2024-05-09T06:25:56.079Z,18.83
2024-05-09T06:29:58.499Z,20.70
2024-05-09T06:34:01.260Z,23.45
2024-05-09T06:42:06.984Z,28.17
2024-05-09T06:46:09.287Z,25.65
2024-05-09T06:50:20.184Z,25.33
2024-05-09T06:54:26.753Z,24.38
2024-05-09T06:58:29.100Z,25.38
2024-05-09T07:02:32.488Z,26.33
2024-05-09T07:06:35.320Z,24.85
2024-05-09T07:14:40.539Z,29.03
2024-05-09T07:18:43.365Z,31.23
2024-05-09T07:22:46.005Z,28.20
2024-05-09T07:26:48.385Z,28.17
2024-05-09T07:30:50.712Z,26.75
2024-05-09T07:34:53.432Z,27.45
2024-05-09T07:42:58.038Z,25.75
2024-05-09T07:48:14.066Z,26.67
2024-05-09T07:55:29.047Z,28.30
2024-05-09T08:03:38.773Z,25.20
2024-05-09T08:07:41.193Z,24.15
2024-05-09T08:11:45.168Z,22.15
2024-05-09T08:15:47.533Z,22.45
2024-05-09T08:19:49.975Z,23.88
2024-05-09T08:23:52.523Z,21.80
2024-05-09T08:27:55.026Z,23.88
2024-05-09T08:31:59.149Z,24.13
2024-05-09T08:36:01.535Z,21.65
2024-05-09T08:40:06.533Z,17.05
2024-05-09T08:44:11.115Z,15.10
2024-05-09T08:52:19.640Z,16.70
2024-05-09T08:56:27.717Z,18.42
2024-05-09T09:00:36.958Z,18.13
2024-05-09T09:04:45.676Z,17.67
2024-05-09T09:08:49.393Z,17.30
2024-05-09T09:13:12.075Z,16.80
2024-05-09T09:17:18.570Z,15.80
2024-05-09T09:21:20.920Z,13.45
2024-05-09T09:25:23.523Z,15.25
2024-05-09T09:29:26.672Z,15.63
2024-05-09T09:33:31.483Z,12.52
2024-05-09T09:37:36.568Z,10.95
2024-05-09T09:41:39.771Z,11.07
2024-05-09T09:45:43.923Z,13.05
2024-05-09T09:49:47.534Z,13.88
2024-05-09T09:53:53.057Z,11.23
2024-05-09T09:57:56.907Z,10.88
2024-05-09T10:01:59.406Z,11.48
2024-05-09T10:10:07.137Z,8.70
2024-05-09T10:14:11.841Z,10.35
2024-05-09T10:26:33.245Z,7.70
2024-05-09T10:30:36.738Z,5.90
2024-05-09T10:34:39.380Z,4.45
2024-05-09T10:42:46.044Z,5.55
2024-05-09T10:46:50.452Z,4.25
2024-05-09T10:50:53.206Z,3.90
2024-05-09T10:54:55.971Z,3.10
2024-05-09T10:58:58.420Z,4.50
2024-05-09T11:03:00.986Z,4.13
2024-05-09T11:11:09.086Z,3.15
2024-05-09T11:15:11.815Z,3.55
